sensor_id;sensor_type;location;lat;lon;timestamp;P1;durP1;ratioP1;P2;durP2;ratioP2
76712;SDS011;65640;43.154;25.658;2023-07-20T00:00:25;11.88;;;1.98;;
76712;SDS011;65640;43.154;25.658;2023-07-20T00:02:50;12.32;;;1.98;;
76712;SDS011;65640;43.154;25.658;2023-07-20T00:05:16;17.40;;;2.63;;
76712;SDS011;65640;43.154;25.658;2023-07-20T00:07:46;16.15;;;2.63;;
76712;SDS011;65640;43.154;25.658;2023-07-20T00:10:12;12.65;;;2.20;;
76712;SDS011;65640;43.154;25.658;2023-07-20T00:12:37;7.88;;;1.80;;
76712;SDS011;65640;43.154;25.658;2023-07-20T00:15:03;12.05;;;1.75;;
76712;SDS011;65640;43.154;25.658;2023-07-20T00:17:29;12.95;;;1.67;;
76712;SDS011;65640;43.154;25.658;2023-07-20T00:19:54;6.85;;;1.58;;
76712;SDS011;65640;43.154;25.658;2023-07-20T00:22:20;7.13;;;1.42;;
76712;SDS011;65640;43.154;25.658;2023-07-20T00:24:45;6.18;;;1.23;;
76712;SDS011;65640;43.154;25.658;2023-07-20T00:27:10;7.15;;;1.60;;
76712;SDS011;65640;43.154;25.658;2023-07-20T00:29:36;8.07;;;1.90;;
76712;SDS011;65640;43.154;25.658;2023-07-20T00:32:01;9.30;;;1.67;;
76712;SDS011;65640;43.154;25.658;2023-07-20T00:34:29;7.15;;;1.75;;
76712;SDS011;65640;43.154;25.658;2023-07-20T00:36:55;9.40;;;1.95;;
76712;SDS011;65640;43.154;25.658;2023-07-20T00:39:20;5.32;;;1.60;;
76712;SDS011;65640;43.154;25.658;2023-07-20T00:41:46;6.38;;;1.55;;
76712;SDS011;65640;43.154;25.658;2023-07-20T00:44:11;5.88;;;1.63;;
76712;SDS011;65640;43.154;25.658;2023-07-20T00:46:37;5.50;;;1.77;;
76712;SDS011;65640;43.154;25.658;2023-07-20T00:49:02;7.25;;;1.77;;
76712;SDS011;65640;43.154;25.658;2023-07-20T00:51:28;7.78;;;2.00;;
76712;SDS011;65640;43.154;25.658;2023-07-20T00:53:54;5.65;;;1.83;;
76712;SDS011;65640;43.154;25.658;2023-07-20T00:56:20;11.73;;;2.08;;
76712;SDS011;65640;43.154;25.658;2023-07-20T00:58:47;7.75;;;1.40;;
76712;SDS011;65640;43.154;25.658;2023-07-20T01:01:12;3.83;;;1.50;;
76712;SDS011;65640;43.154;25.658;2023-07-20T01:03:38;4.93;;;1.55;;
76712;SDS011;65640;43.154;25.658;2023-07-20T01:13:53;4.65;;;1.30;;
76712;SDS011;65640;43.154;25.658;2023-07-20T01:16:18;5.35;;;1.55;;
76712;SDS011;65640;43.154;25.658;2023-07-20T01:18:44;6.60;;;1.55;;
76712;SDS011;65640;43.154;25.658;2023-07-20T01:21:09;6.03;;;1.88;;
76712;SDS011;65640;43.154;25.658;2023-07-20T01:23:48;6.78;;;1.70;;
76712;SDS011;65640;43.154;25.658;2023-07-20T01:29:22;7.05;;;1.40;;
76712;SDS011;65640;43.154;25.658;2023-07-20T01:32:00;6.80;;;1.77;;
76712;SDS011;65640;43.154;25.658;2023-07-20T01:34:28;5.78;;;1.77;;
76712;SDS011;65640;43.154;25.658;2023-07-20T01:36:55;6.88;;;1.70;;
76712;SDS011;65640;43.154;25.658;2023-07-20T01:39:22;7.38;;;1.58;;
76712;SDS011;65640;43.154;25.658;2023-07-20T01:41:48;8.98;;;2.00;;
76712;SDS011;65640;43.154;25.658;2023-07-20T01:44:14;5.05;;;1.63;;
76712;SDS011;65640;43.154;25.658;2023-07-20T01:46:39;4.65;;;1.88;;
76712;SDS011;65640;43.154;25.658;2023-07-20T01:49:05;7.68;;;1.95;;
76712;SDS011;65640;43.154;25.658;2023-07-20T01:51:31;7.03;;;1.45;;
76712;SDS011;65640;43.154;25.658;2023-07-20T01:53:56;8.15;;;1.30;;
76712;SDS011;65640;43.154;25.658;2023-07-20T01:56:22;8.02;;;1.75;;
76712;SDS011;65640;43.154;25.658;2023-07-20T01:58:47;8.75;;;1.80;;
76712;SDS011;65640;43.154;25.658;2023-07-20T02:01:12;4.32;;;1.95;;
76712;SDS011;65640;43.154;25.658;2023-07-20T02:03:38;6.10;;;1.80;;
76712;SDS011;65640;43.154;25.658;2023-07-20T02:06:03;5.32;;;1.90;;
76712;SDS011;65640;43.154;25.658;2023-07-20T02:08:28;5.13;;;1.50;;
76712;SDS011;65640;43.154;25.658;2023-07-20T02:10:54;8.43;;;1.55;;
76712;SDS011;65640;43.154;25.658;2023-07-20T02:13:19;7.20;;;1.83;;
76712;SDS011;65640;43.154;25.658;2023-07-20T02:15:45;9.57;;;1.73;;
76712;SDS011;65640;43.154;25.658;2023-07-20T02:18:12;7.32;;;1.65;;
76712;SDS011;65640;43.154;25.658;2023-07-20T02:20:37;5.35;;;1.70;;
76712;SDS011;65640;43.154;25.658;2023-07-20T02:23:03;9.50;;;1.83;;
76712;SDS011;65640;43.154;25.658;2023-07-20T02:25:28;4.90;;;1.98;;
76712;SDS011;65640;43.154;25.658;2023-07-20T02:27:55;6.50;;;1.52;;
76712;SDS011;65640;43.154;25.658;2023-07-20T02:30:21;9.75;;;2.90;;
76712;SDS011;65640;43.154;25.658;2023-07-20T02:32:47;7.05;;;2.13;;
76712;SDS011;65640;43.154;25.658;2023-07-20T02:35:13;6.00;;;1.70;;
76712;SDS011;65640;43.154;25.658;2023-07-20T02:40:05;6.00;;;1.70;;
76712;SDS011;65640;43.154;25.658;2023-07-20T02:42:32;8.27;;;2.22;;
76712;SDS011;65640;43.154;25.658;2023-07-20T02:44:57;4.22;;;1.80;;
76712;SDS011;65640;43.154;25.658;2023-07-20T02:47:23;7.03;;;2.42;;
76712;SDS011;65640;43.154;25.658;2023-07-20T02:49:48;5.43;;;2.05;;
76712;SDS011;65640;43.154;25.658;2023-07-20T02:52:14;5.82;;;2.20;;
76712;SDS011;65640;43.154;25.658;2023-07-20T02:54:39;6.55;;;2.13;;
76712;SDS011;65640;43.154;25.658;2023-07-20T02:57:05;5.13;;;2.15;;
76712;SDS011;65640;43.154;25.658;2023-07-20T02:59:31;4.70;;;2.95;;
76712;SDS011;65640;43.154;25.658;2023-07-20T03:01:56;6.15;;;2.28;;
76712;SDS011;65640;43.154;25.658;2023-07-20T03:04:22;7.07;;;2.35;;
76712;SDS011;65640;43.154;25.658;2023-07-20T03:06:50;8.20;;;2.20;;
76712;SDS011;65640;43.154;25.658;2023-07-20T03:09:16;6.97;;;2.00;;
76712;SDS011;65640;43.154;25.658;2023-07-20T03:11:41;7.28;;;2.22;;
76712;SDS011;65640;43.154;25.658;2023-07-20T03:14:07;7.95;;;2.00;;
76712;SDS011;65640;43.154;25.658;2023-07-20T03:16:32;9.32;;;1.98;;
76712;SDS011;65640;43.154;25.658;2023-07-20T03:18:59;7.75;;;2.25;;
76712;SDS011;65640;43.154;25.658;2023-07-20T03:21:25;6.47;;;2.10;;
76712;SDS011;65640;43.154;25.658;2023-07-20T03:23:51;8.73;;;2.47;;
76712;SDS011;65640;43.154;25.658;2023-07-20T03:26:16;7.68;;;2.10;;
76712;SDS011;65640;43.154;25.658;2023-07-20T03:28:42;7.68;;;2.03;;
76712;SDS011;65640;43.154;25.658;2023-07-20T03:31:07;4.25;;;1.95;;
76712;SDS011;65640;43.154;25.658;2023-07-20T03:33:33;6.22;;;1.80;;
76712;SDS011;65640;43.154;25.658;2023-07-20T03:35:59;8.52;;;2.03;;
76712;SDS011;65640;43.154;25.658;2023-07-20T03:38:25;3.58;;;2.28;;
76712;SDS011;65640;43.154;25.658;2023-07-20T03:40:55;6.13;;;2.35;;
76712;SDS011;65640;43.154;25.658;2023-07-20T03:43:22;6.78;;;1.75;;
76712;SDS011;65640;43.154;25.658;2023-07-20T03:45:49;9.48;;;1.92;;
76712;SDS011;65640;43.154;25.658;2023-07-20T03:48:15;4.10;;;1.73;;
76712;SDS011;65640;43.154;25.658;2023-07-20T03:50:45;7.03;;;2.83;;
76712;SDS011;65640;43.154;25.658;2023-07-20T03:53:12;8.20;;;1.98;;
76712;SDS011;65640;43.154;25.658;2023-07-20T03:55:38;5.13;;;2.28;;
76712;SDS011;65640;43.154;25.658;2023-07-20T03:58:05;9.38;;;2.30;;
76712;SDS011;65640;43.154;25.658;2023-07-20T04:00:31;5.28;;;2.10;;
76712;SDS011;65640;43.154;25.658;2023-07-20T04:02:56;5.78;;;1.92;;
76712;SDS011;65640;43.154;25.658;2023-07-20T04:05:22;5.45;;;1.98;;
76712;SDS011;65640;43.154;25.658;2023-07-20T04:07:47;8.48;;;2.05;;
76712;SDS011;65640;43.154;25.658;2023-07-20T04:10:13;7.00;;;2.08;;
76712;SDS011;65640;43.154;25.658;2023-07-20T04:12:38;5.03;;;2.00;;
76712;SDS011;65640;43.154;25.658;2023-07-20T04:15:03;4.22;;;2.35;;
76712;SDS011;65640;43.154;25.658;2023-07-20T04:17:29;3.47;;;1.85;;
76712;SDS011;65640;43.154;25.658;2023-07-20T04:19:55;8.00;;;2.22;;
76712;SDS011;65640;43.154;25.658;2023-07-20T04:22:20;5.60;;;1.75;;
76712;SDS011;65640;43.154;25.658;2023-07-20T04:24:46;7.78;;;2.30;;
76712;SDS011;65640;43.154;25.658;2023-07-20T04:27:12;10.38;;;2.55;;
76712;SDS011;65640;43.154;25.658;2023-07-20T04:29:37;6.45;;;2.28;;
76712;SDS011;65640;43.154;25.658;2023-07-20T04:32:03;7.40;;;1.67;;
76712;SDS011;65640;43.154;25.658;2023-07-20T04:34:28;4.75;;;1.83;;
76712;SDS011;65640;43.154;25.658;2023-07-20T04:36:54;6.80;;;1.75;;
76712;SDS011;65640;43.154;25.658;2023-07-20T04:39:19;6.35;;;1.80;;
76712;SDS011;65640;43.154;25.658;2023-07-20T04:41:44;11.00;;;2.28;;
76712;SDS011;65640;43.154;25.658;2023-07-20T04:44:10;9.07;;;2.67;;
76712;SDS011;65640;43.154;25.658;2023-07-20T04:46:35;9.95;;;1.83;;
76712;SDS011;65640;43.154;25.658;2023-07-20T04:49:01;7.18;;;2.15;;
76712;SDS011;65640;43.154;25.658;2023-07-20T04:51:26;6.40;;;2.15;;
76712;SDS011;65640;43.154;25.658;2023-07-20T04:53:52;4.57;;;2.33;;
76712;SDS011;65640;43.154;25.658;2023-07-20T04:56:17;4.38;;;2.10;;
76712;SDS011;65640;43.154;25.658;2023-07-20T04:58:43;4.22;;;2.05;;
76712;SDS011;65640;43.154;25.658;2023-07-20T05:01:08;6.05;;;1.92;;
76712;SDS011;65640;43.154;25.658;2023-07-20T05:03:34;9.77;;;1.77;;
76712;SDS011;65640;43.154;25.658;2023-07-20T05:05:59;6.90;;;2.25;;
76712;SDS011;65640;43.154;25.658;2023-07-20T05:08:25;6.32;;;1.65;;
76712;SDS011;65640;43.154;25.658;2023-07-20T05:10:50;5.75;;;1.70;;
76712;SDS011;65640;43.154;25.658;2023-07-20T05:13:16;5.53;;;1.23;;
76712;SDS011;65640;43.154;25.658;2023-07-20T05:15:41;6.57;;;1.90;;
76712;SDS011;65640;43.154;25.658;2023-07-20T05:18:06;4.18;;;1.55;;
76712;SDS011;65640;43.154;25.658;2023-07-20T05:20:33;6.65;;;1.85;;
76712;SDS011;65640;43.154;25.658;2023-07-20T05:22:59;3.53;;;1.30;;
76712;SDS011;65640;43.154;25.658;2023-07-20T05:25:25;4.93;;;1.70;;
76712;SDS011;65640;43.154;25.658;2023-07-20T05:27:51;7.95;;;2.08;;
76712;SDS011;65640;43.154;25.658;2023-07-20T05:30:17;4.60;;;1.77;;
76712;SDS011;65640;43.154;25.658;2023-07-20T05:32:43;2.90;;;1.70;;
76712;SDS011;65640;43.154;25.658;2023-07-20T05:35:10;3.88;;;1.60;;
76712;SDS011;65640;43.154;25.658;2023-07-20T05:37:36;4.10;;;1.45;;
76712;SDS011;65640;43.154;25.658;2023-07-20T05:40:03;4.35;;;1.52;;
76712;SDS011;65640;43.154;25.658;2023-07-20T05:42:29;5.00;;;1.70;;
76712;SDS011;65640;43.154;25.658;2023-07-20T05:44:55;5.97;;;2.10;;
76712;SDS011;65640;43.154;25.658;2023-07-20T05:47:20;4.35;;;2.30;;
76712;SDS011;65640;43.154;25.658;2023-07-20T05:49:45;6.45;;;2.10;;
76712;SDS011;65640;43.154;25.658;2023-07-20T05:54:36;5.15;;;1.67;;
76712;SDS011;65640;43.154;25.658;2023-07-20T05:57:03;5.53;;;1.88;;
76712;SDS011;65640;43.154;25.658;2023-07-20T06:01:54;7.00;;;2.10;;
76712;SDS011;65640;43.154;25.658;2023-07-20T06:06:45;8.07;;;2.70;;
76712;SDS011;65640;43.154;25.658;2023-07-20T06:11:37;5.18;;;1.85;;
76712;SDS011;65640;43.154;25.658;2023-07-20T06:14:04;5.30;;;2.03;;
76712;SDS011;65640;43.154;25.658;2023-07-20T06:18:55;7.45;;;1.90;;
76712;SDS011;65640;43.154;25.658;2023-07-20T06:21:20;3.42;;;1.65;;
76712;SDS011;65640;43.154;25.658;2023-07-20T06:23:46;5.05;;;1.88;;
76712;SDS011;65640;43.154;25.658;2023-07-20T06:26:11;5.05;;;1.52;;
76712;SDS011;65640;43.154;25.658;2023-07-20T06:31:02;3.40;;;1.67;;
76712;SDS011;65640;43.154;25.658;2023-07-20T06:33:29;1.83;;;1.67;;
76712;SDS011;65640;43.154;25.658;2023-07-20T06:38:22;2.10;;;1.58;;
76712;SDS011;65640;43.154;25.658;2023-07-20T06:40:48;6.35;;;1.73;;
76712;SDS011;65640;43.154;25.658;2023-07-20T06:45:39;2.33;;;1.40;;
76712;SDS011;65640;43.154;25.658;2023-07-20T06:50:31;3.60;;;1.90;;
76712;SDS011;65640;43.154;25.658;2023-07-20T06:52:56;5.13;;;1.92;;
76712;SDS011;65640;43.154;25.658;2023-07-20T06:57:47;2.88;;;1.55;;
76712;SDS011;65640;43.154;25.658;2023-07-20T07:02:38;5.63;;;2.25;;
76712;SDS011;65640;43.154;25.658;2023-07-20T07:07:29;4.07;;;1.90;;
76712;SDS011;65640;43.154;25.658;2023-07-20T07:12:20;3.85;;;1.50;;
76712;SDS011;65640;43.154;25.658;2023-07-20T07:17:10;3.55;;;1.90;;
76712;SDS011;65640;43.154;25.658;2023-07-20T07:22:02;2.78;;;2.35;;
76712;SDS011;65640;43.154;25.658;2023-07-20T07:26:58;4.30;;;1.92;;
76712;SDS011;65640;43.154;25.658;2023-07-20T07:29:27;5.53;;;1.67;;
76712;SDS011;65640;43.154;25.658;2023-07-20T07:34:18;2.72;;;1.63;;
76712;SDS011;65640;43.154;25.658;2023-07-20T07:39:09;2.42;;;1.85;;
76712;SDS011;65640;43.154;25.658;2023-07-20T07:44:00;2.33;;;1.63;;
76712;SDS011;65640;43.154;25.658;2023-07-20T07:48:50;2.95;;;1.23;;
76712;SDS011;65640;43.154;25.658;2023-07-20T07:51:16;8.68;;;1.58;;
76712;SDS011;65640;43.154;25.658;2023-07-20T07:53:41;2.22;;;1.52;;
76712;SDS011;65640;43.154;25.658;2023-07-20T07:56:07;5.45;;;1.80;;
76712;SDS011;65640;43.154;25.658;2023-07-20T07:58:33;4.32;;;1.85;;
76712;SDS011;65640;43.154;25.658;2023-07-20T08:00:59;3.78;;;1.50;;
76712;SDS011;65640;43.154;25.658;2023-07-20T08:05:49;2.70;;;1.63;;
76712;SDS011;65640;43.154;25.658;2023-07-20T08:08:15;2.08;;;1.70;;
76712;SDS011;65640;43.154;25.658;2023-07-20T08:10:40;3.50;;;1.90;;
76712;SDS011;65640;43.154;25.658;2023-07-20T08:13:06;3.10;;;1.70;;
76712;SDS011;65640;43.154;25.658;2023-07-20T08:15:31;1.77;;;1.40;;
76712;SDS011;65640;43.154;25.658;2023-07-20T08:20:22;2.08;;;1.90;;
76712;SDS011;65640;43.154;25.658;2023-07-20T08:22:51;3.33;;;1.73;;
76712;SDS011;65640;43.154;25.658;2023-07-20T08:25:20;2.88;;;1.48;;
76712;SDS011;65640;43.154;25.658;2023-07-20T08:27:46;7.97;;;1.77;;
76712;SDS011;65640;43.154;25.658;2023-07-20T08:30:12;2.58;;;1.92;;
76712;SDS011;65640;43.154;25.658;2023-07-20T08:32:38;3.08;;;1.98;;
76712;SDS011;65640;43.154;25.658;2023-07-20T08:35:04;2.30;;;1.73;;
76712;SDS011;65640;43.154;25.658;2023-07-20T08:37:30;3.25;;;2.20;;
76712;SDS011;65640;43.154;25.658;2023-07-20T08:39:56;3.30;;;1.90;;
76712;SDS011;65640;43.154;25.658;2023-07-20T08:42:21;2.97;;;1.83;;
76712;SDS011;65640;43.154;25.658;2023-07-20T08:44:48;2.95;;;1.80;;
76712;SDS011;65640;43.154;25.658;2023-07-20T08:47:16;5.47;;;2.20;;
76712;SDS011;65640;43.154;25.658;2023-07-20T08:49:42;2.40;;;1.85;;
76712;SDS011;65640;43.154;25.658;2023-07-20T08:52:08;3.35;;;2.00;;
76712;SDS011;65640;43.154;25.658;2023-07-20T08:54:34;7.22;;;1.85;;
76712;SDS011;65640;43.154;25.658;2023-07-20T08:57:04;2.22;;;1.75;;
76712;SDS011;65640;43.154;25.658;2023-07-20T08:59:31;5.53;;;2.03;;
76712;SDS011;65640;43.154;25.658;2023-07-20T09:02:00;3.20;;;1.88;;
76712;SDS011;65640;43.154;25.658;2023-07-20T09:04:27;14.82;;;2.97;;
76712;SDS011;65640;43.154;25.658;2023-07-20T09:06:52;4.60;;;2.00;;
76712;SDS011;65640;43.154;25.658;2023-07-20T09:09:18;3.20;;;2.05;;
76712;SDS011;65640;43.154;25.658;2023-07-20T09:11:43;2.45;;;1.90;;
76712;SDS011;65640;43.154;25.658;2023-07-20T09:14:13;2.63;;;2.33;;
76712;SDS011;65640;43.154;25.658;2023-07-20T09:16:52;15.90;;;2.60;;
76712;SDS011;65640;43.154;25.658;2023-07-20T09:19:18;8.32;;;2.88;;
76712;SDS011;65640;43.154;25.658;2023-07-20T09:21:45;4.25;;;2.20;;
76712;SDS011;65640;43.154;25.658;2023-07-20T09:24:12;3.90;;;2.20;;
76712;SDS011;65640;43.154;25.658;2023-07-20T09:26:41;4.57;;;2.65;;
76712;SDS011;65640;43.154;25.658;2023-07-20T09:29:08;3.75;;;2.40;;
76712;SDS011;65640;43.154;25.658;2023-07-20T09:31:35;6.03;;;2.10;;
76712;SDS011;65640;43.154;25.658;2023-07-20T09:34:00;2.50;;;2.00;;
76712;SDS011;65640;43.154;25.658;2023-07-20T09:36:29;4.90;;;2.08;;
76712;SDS011;65640;43.154;25.658;2023-07-20T09:38:54;4.13;;;2.25;;
76712;SDS011;65640;43.154;25.658;2023-07-20T09:41:20;3.13;;;2.00;;
76712;SDS011;65640;43.154;25.658;2023-07-20T09:43:46;5.50;;;2.20;;
76712;SDS011;65640;43.154;25.658;2023-07-20T09:46:11;3.30;;;2.47;;
76712;SDS011;65640;43.154;25.658;2023-07-20T09:48:37;5.20;;;2.28;;
76712;SDS011;65640;43.154;25.658;2023-07-20T09:51:03;5.70;;;3.03;;
76712;SDS011;65640;43.154;25.658;2023-07-20T09:53:31;5.80;;;2.58;;
76712;SDS011;65640;43.154;25.658;2023-07-20T09:55:58;6.75;;;2.63;;
76712;SDS011;65640;43.154;25.658;2023-07-20T09:58:23;6.45;;;2.60;;
76712;SDS011;65640;43.154;25.658;2023-07-20T10:00:51;2.95;;;2.33;;
76712;SDS011;65640;43.154;25.658;2023-07-20T10:03:25;5.90;;;2.67;;
76712;SDS011;65640;43.154;25.658;2023-07-20T10:05:58;4.88;;;2.50;;
76712;SDS011;65640;43.154;25.658;2023-07-20T10:08:31;2.83;;;2.33;;
76712;SDS011;65640;43.154;25.658;2023-07-20T10:11:00;4.22;;;2.47;;
76712;SDS011;65640;43.154;25.658;2023-07-20T10:13:27;4.82;;;2.63;;
76712;SDS011;65640;43.154;25.658;2023-07-20T10:15:59;4.43;;;2.88;;
76712;SDS011;65640;43.154;25.658;2023-07-20T10:18:29;2.53;;;2.20;;
76712;SDS011;65640;43.154;25.658;2023-07-20T10:21:00;2.72;;;2.53;;
76712;SDS011;65640;43.154;25.658;2023-07-20T10:23:26;6.68;;;2.50;;
76712;SDS011;65640;43.154;25.658;2023-07-20T10:25:54;4.68;;;2.65;;
76712;SDS011;65640;43.154;25.658;2023-07-20T10:28:20;3.50;;;2.50;;
76712;SDS011;65640;43.154;25.658;2023-07-20T10:30:48;4.45;;;2.30;;
76712;SDS011;65640;43.154;25.658;2023-07-20T10:33:14;9.20;;;2.33;;
76712;SDS011;65640;43.154;25.658;2023-07-20T10:36:00;5.63;;;2.83;;
76712;SDS011;65640;43.154;25.658;2023-07-20T10:43:44;21.00;;;3.22;;
76712;SDS011;65640;43.154;25.658;2023-07-20T10:46:10;6.00;;;2.50;;
76712;SDS011;65640;43.154;25.658;2023-07-20T10:48:58;4.40;;;2.78;;
76712;SDS011;65640;43.154;25.658;2023-07-20T10:51:55;5.47;;;2.75;;
76712;SDS011;65640;43.154;25.658;2023-07-20T10:56:48;5.43;;;3.15;;
76712;SDS011;65640;43.154;25.658;2023-07-20T11:01:57;4.90;;;2.47;;
76712;SDS011;65640;43.154;25.658;2023-07-20T11:07:05;3.65;;;2.60;;
76712;SDS011;65640;43.154;25.658;2023-07-20T11:09:34;2.72;;;2.50;;
76712;SDS011;65640;43.154;25.658;2023-07-20T11:12:10;5.05;;;2.97;;
76712;SDS011;65640;43.154;25.658;2023-07-20T11:14:43;6.15;;;2.85;;
76712;SDS011;65640;43.154;25.658;2023-07-20T11:17:18;4.05;;;2.75;;
76712;SDS011;65640;43.154;25.658;2023-07-20T11:19:47;4.55;;;2.30;;
76712;SDS011;65640;43.154;25.658;2023-07-20T11:22:13;8.57;;;2.90;;
76712;SDS011;65640;43.154;25.658;2023-07-20T11:24:41;8.15;;;4.25;;
76712;SDS011;65640;43.154;25.658;2023-07-20T11:27:07;8.02;;;4.43;;
76712;SDS011;65640;43.154;25.658;2023-07-20T11:29:34;3.05;;;2.83;;
76712;SDS011;65640;43.154;25.658;2023-07-20T11:32:01;4.80;;;2.22;;
76712;SDS011;65640;43.154;25.658;2023-07-20T11:34:29;2.58;;;2.38;;
76712;SDS011;65640;43.154;25.658;2023-07-20T11:36:55;3.42;;;3.13;;
76712;SDS011;65640;43.154;25.658;2023-07-20T11:39:21;6.00;;;3.47;;
76712;SDS011;65640;43.154;25.658;2023-07-20T11:44:17;4.57;;;3.17;;
76712;SDS011;65640;43.154;25.658;2023-07-20T11:46:53;8.60;;;6.05;;
76712;SDS011;65640;43.154;25.658;2023-07-20T11:49:26;3.85;;;3.55;;
76712;SDS011;65640;43.154;25.658;2023-07-20T11:51:51;5.93;;;3.33;;
76712;SDS011;65640;43.154;25.658;2023-07-20T11:54:17;3.95;;;2.60;;
76712;SDS011;65640;43.154;25.658;2023-07-20T11:56:43;4.97;;;2.70;;
76712;SDS011;65640;43.154;25.658;2023-07-20T11:59:09;3.00;;;2.30;;
76712;SDS011;65640;43.154;25.658;2023-07-20T12:01:34;2.83;;;2.25;;
76712;SDS011;65640;43.154;25.658;2023-07-20T12:04:03;3.28;;;2.75;;
76712;SDS011;65640;43.154;25.658;2023-07-20T12:06:29;4.10;;;2.28;;
76712;SDS011;65640;43.154;25.658;2023-07-20T12:08:56;4.47;;;2.55;;
76712;SDS011;65640;43.154;25.658;2023-07-20T12:16:27;5.07;;;2.83;;
76712;SDS011;65640;43.154;25.658;2023-07-20T12:19:00;2.90;;;2.70;;
76712;SDS011;65640;43.154;25.658;2023-07-20T12:21:30;3.33;;;2.35;;
76712;SDS011;65640;43.154;25.658;2023-07-20T12:23:57;3.00;;;2.65;;
76712;SDS011;65640;43.154;25.658;2023-07-20T12:26:23;3.10;;;2.25;;
76712;SDS011;65640;43.154;25.658;2023-07-20T12:28:50;3.88;;;2.63;;
76712;SDS011;65640;43.154;25.658;2023-07-20T12:31:16;3.53;;;2.67;;
76712;SDS011;65640;43.154;25.658;2023-07-20T12:33:41;2.50;;;2.30;;
76712;SDS011;65640;43.154;25.658;2023-07-20T12:36:08;3.92;;;2.00;;
76712;SDS011;65640;43.154;25.658;2023-07-20T12:38:34;1.90;;;1.70;;
76712;SDS011;65640;43.154;25.658;2023-07-20T12:41:03;2.85;;;2.35;;
76712;SDS011;65640;43.154;25.658;2023-07-20T12:43:29;3.10;;;2.90;;
76712;SDS011;65640;43.154;25.658;2023-07-20T12:45:55;2.55;;;2.10;;
76712;SDS011;65640;43.154;25.658;2023-07-20T12:48:21;3.05;;;2.67;;
76712;SDS011;65640;43.154;25.658;2023-07-20T12:50:46;2.47;;;2.20;;
76712;SDS011;65640;43.154;25.658;2023-07-20T12:53:12;2.88;;;2.58;;
76712;SDS011;65640;43.154;25.658;2023-07-20T12:55:38;4.05;;;2.50;;
76712;SDS011;65640;43.154;25.658;2023-07-20T12:58:07;2.90;;;2.17;;
76712;SDS011;65640;43.154;25.658;2023-07-20T13:00:33;6.43;;;2.13;;
76712;SDS011;65640;43.154;25.658;2023-07-20T13:02:59;1.90;;;1.80;;
76712;SDS011;65640;43.154;25.658;2023-07-20T13:05:24;2.80;;;1.80;;
76712;SDS011;65640;43.154;25.658;2023-07-20T13:07:50;1.77;;;1.63;;
76712;SDS011;65640;43.154;25.658;2023-07-20T13:10:16;2.38;;;1.77;;
76712;SDS011;65640;43.154;25.658;2023-07-20T13:12:41;1.92;;;1.75;;
76712;SDS011;65640;43.154;25.658;2023-07-20T13:15:07;2.75;;;1.92;;
76712;SDS011;65640;43.154;25.658;2023-07-20T13:17:34;4.18;;;1.80;;
76712;SDS011;65640;43.154;25.658;2023-07-20T13:20:01;1.90;;;1.70;;
76712;SDS011;65640;43.154;25.658;2023-07-20T13:22:29;2.00;;;1.90;;
76712;SDS011;65640;43.154;25.658;2023-07-20T13:24:55;2.55;;;2.00;;
76712;SDS011;65640;43.154;25.658;2023-07-20T13:27:20;2.78;;;1.55;;
76712;SDS011;65640;43.154;25.658;2023-07-20T13:29:46;1.73;;;1.63;;
76712;SDS011;65640;43.154;25.658;2023-07-20T13:32:15;3.92;;;2.15;;
76712;SDS011;65640;43.154;25.658;2023-07-20T13:34:40;3.42;;;2.25;;
76712;SDS011;65640;43.154;25.658;2023-07-20T13:37:06;4.32;;;2.13;;
76712;SDS011;65640;43.154;25.658;2023-07-20T13:39:33;2.88;;;2.67;;
76712;SDS011;65640;43.154;25.658;2023-07-20T13:41:58;3.10;;;1.98;;
76712;SDS011;65640;43.154;25.658;2023-07-20T13:44:24;2.95;;;1.80;;
76712;SDS011;65640;43.154;25.658;2023-07-20T13:46:49;3.08;;;2.17;;
76712;SDS011;65640;43.154;25.658;2023-07-20T13:49:15;2.25;;;2.05;;
76712;SDS011;65640;43.154;25.658;2023-07-20T13:51:41;2.65;;;1.95;;
76712;SDS011;65640;43.154;25.658;2023-07-20T13:54:07;2.03;;;1.92;;
76712;SDS011;65640;43.154;25.658;2023-07-20T13:56:32;3.47;;;1.75;;
76712;SDS011;65640;43.154;25.658;2023-07-20T13:58:58;2.00;;;1.90;;
76712;SDS011;65640;43.154;25.658;2023-07-20T14:01:23;2.33;;;1.90;;
76712;SDS011;65640;43.154;25.658;2023-07-20T14:03:50;2.17;;;1.75;;
76712;SDS011;65640;43.154;25.658;2023-07-20T14:06:16;5.03;;;2.38;;
76712;SDS011;65640;43.154;25.658;2023-07-20T14:08:41;2.72;;;1.83;;
76712;SDS011;65640;43.154;25.658;2023-07-20T14:11:07;7.28;;;1.65;;
76712;SDS011;65640;43.154;25.658;2023-07-20T14:13:32;2.53;;;1.92;;
76712;SDS011;65640;43.154;25.658;2023-07-20T14:15:58;3.35;;;1.95;;
76712;SDS011;65640;43.154;25.658;2023-07-20T14:18:23;4.15;;;2.20;;
76712;SDS011;65640;43.154;25.658;2023-07-20T14:20:49;4.40;;;1.80;;
76712;SDS011;65640;43.154;25.658;2023-07-20T14:23:14;6.00;;;1.98;;
76712;SDS011;65640;43.154;25.658;2023-07-20T14:25:40;7.10;;;1.80;;
76712;SDS011;65640;43.154;25.658;2023-07-20T14:28:05;6.25;;;2.10;;
76712;SDS011;65640;43.154;25.658;2023-07-20T14:30:31;2.88;;;1.55;;
76712;SDS011;65640;43.154;25.658;2023-07-20T14:32:56;2.63;;;1.60;;
76712;SDS011;65640;43.154;25.658;2023-07-20T14:35:21;2.83;;;2.03;;
76712;SDS011;65640;43.154;25.658;2023-07-20T14:37:47;6.55;;;1.85;;
76712;SDS011;65640;43.154;25.658;2023-07-20T14:40:13;3.38;;;1.50;;
76712;SDS011;65640;43.154;25.658;2023-07-20T14:42:38;2.10;;;1.80;;
76712;SDS011;65640;43.154;25.658;2023-07-20T14:45:04;2.22;;;1.67;;
76712;SDS011;65640;43.154;25.658;2023-07-20T14:47:30;3.83;;;1.60;;
76712;SDS011;65640;43.154;25.658;2023-07-20T14:50:00;6.20;;;2.33;;
76712;SDS011;65640;43.154;25.658;2023-07-20T14:52:27;3.03;;;1.90;;
76712;SDS011;65640;43.154;25.658;2023-07-20T14:54:53;6.25;;;2.20;;
76712;SDS011;65640;43.154;25.658;2023-07-20T14:57:19;3.63;;;1.60;;
76712;SDS011;65640;43.154;25.658;2023-07-20T14:59:45;3.40;;;1.88;;
76712;SDS011;65640;43.154;25.658;2023-07-20T15:02:11;2.70;;;1.77;;
76712;SDS011;65640;43.154;25.658;2023-07-20T15:04:37;3.83;;;2.10;;
76712;SDS011;65640;43.154;25.658;2023-07-20T15:07:11;3.55;;;1.70;;
76712;SDS011;65640;43.154;25.658;2023-07-20T15:09:36;5.95;;;2.05;;
76712;SDS011;65640;43.154;25.658;2023-07-20T15:12:01;2.80;;;1.60;;
76712;SDS011;65640;43.154;25.658;2023-07-20T15:14:27;3.78;;;1.75;;
76712;SDS011;65640;43.154;25.658;2023-07-20T15:16:52;3.05;;;1.65;;
76712;SDS011;65640;43.154;25.658;2023-07-20T15:19:18;4.55;;;1.80;;
76712;SDS011;65640;43.154;25.658;2023-07-20T15:21:43;4.03;;;1.83;;
76712;SDS011;65640;43.154;25.658;2023-07-20T15:24:08;3.28;;;1.80;;
76712;SDS011;65640;43.154;25.658;2023-07-20T15:26:34;1.67;;;1.58;;
76712;SDS011;65640;43.154;25.658;2023-07-20T15:29:00;4.57;;;1.88;;
76712;SDS011;65640;43.154;25.658;2023-07-20T15:31:25;3.33;;;1.92;;
76712;SDS011;65640;43.154;25.658;2023-07-20T15:33:51;1.50;;;1.27;;
76712;SDS011;65640;43.154;25.658;2023-07-20T15:36:17;3.83;;;1.67;;
76712;SDS011;65640;43.154;25.658;2023-07-20T15:38:42;6.32;;;1.77;;
76712;SDS011;65640;43.154;25.658;2023-07-20T15:41:08;2.75;;;1.55;;
76712;SDS011;65640;43.154;25.658;2023-07-20T15:43:33;2.13;;;1.20;;
76712;SDS011;65640;43.154;25.658;2023-07-20T15:48:46;3.50;;;1.75;;
76712;SDS011;65640;43.154;25.658;2023-07-20T15:51:12;6.35;;;1.80;;
76712;SDS011;65640;43.154;25.658;2023-07-20T15:53:38;4.03;;;1.80;;
76712;SDS011;65640;43.154;25.658;2023-07-20T15:56:04;2.15;;;1.45;;
76712;SDS011;65640;43.154;25.658;2023-07-20T15:58:29;2.70;;;1.23;;